»·PEaware :: N733BE KSNA-KCRQ

N733BE :: KSNA-KCRQ

FLIGHT INFORMATION

Flight Status: Arrived
Operator: Privately registered:
United States
More flights under this callsign
Pilot: Edouard Y. (17261)
Aircraft: CESSNA 172 SKYHAWK
(C172)
More flights by this aircraft type
Origin: KSNA John Wayne-Orange Co
United States
Destination: KCRQ McClellan-Palomar
United States
More flights between these airports :: More routes between these airports
Route: V23 OCN
File this flight plan on PilotEdge
Remarks: I-2 Attempt
Altitude:
(Current/Filed)
5,000ft
Speed:
(Current/Filed)
110kts
Departed: 13-Feb-18 10:06 PM
Arrived: 13-Feb-18 10:48 PM
Distance/Time
Traveled:
44nm/0:42
Distance/Time
To Go:
Arrived

Flight Plot

Page will automatically refresh every two minutes.


Map Options




Map Legend


Flown Route
Filed Route
Departure Airport
Arrival Airport
Navaid (VOR, NDB)
Fix

Horizontal Profiles

Position Reports

Time Latitude Longitude Heading Altitude Ground
Speed
13-Feb-18 21:59 33.671590 -117.867675 207 60ft 0kts
13-Feb-18 22:00 33.671590 -117.867675 207 60ft 0kts
13-Feb-18 22:01 33.671590 -117.867675 207 60ft 0kts
13-Feb-18 22:02 33.671590 -117.867675 207 60ft 0kts
13-Feb-18 22:03 33.671590 -117.867675 207 60ft 0kts
13-Feb-18 22:04 33.671590 -117.867675 207 60ft 0kts
13-Feb-18 22:05 33.671590 -117.867675 207 60ft 0kts
13-Feb-18 22:06 33.671554 -117.867817 299 60ft 3kts
13-Feb-18 22:07 33.673852 -117.867301 38 60ft 6kts
13-Feb-18 22:08 33.675852 -117.865994 25 60ft 16kts
13-Feb-18 22:09 33.679874 -117.863492 5 60ft 7kts
13-Feb-18 22:10 33.680024 -117.863601 297 60ft 0kts
13-Feb-18 22:11 33.680024 -117.863601 297 60ft 0kts
13-Feb-18 22:12 33.680120 -117.863931 280 60ft 8kts
13-Feb-18 22:13 33.666586 -117.871208 191 571ft 79kts
13-Feb-18 22:14 33.645433 -117.876058 189 1582ft 77kts
13-Feb-18 22:15 33.623970 -117.880911 191 2501ft 80kts
13-Feb-18 22:16 33.602813 -117.880260 128 3343ft 82kts
13-Feb-18 22:17 33.589517 -117.858363 124 4182ft 81kts
13-Feb-18 22:18 33.575932 -117.836508 121 4946ft 85kts
13-Feb-18 22:19 33.559429 -117.807595 124 5036ft 113kts
13-Feb-18 22:20 33.541126 -117.776083 123 5012ft 116kts
13-Feb-18 22:21 33.518297 -117.748597 136 4940ft 117kts
13-Feb-18 22:22 33.493472 -117.724186 139 4963ft 111kts
13-Feb-18 22:23 33.470513 -117.699046 128 4993ft 110kts
13-Feb-18 22:24 33.448920 -117.672144 132 4983ft 111kts
13-Feb-18 22:25 33.425770 -117.647280 132 4993ft 111kts
13-Feb-18 22:26 33.403826 -117.621457 128 5007ft 110kts
13-Feb-18 22:27 33.383136 -117.595032 129 5021ft 110kts
13-Feb-18 22:28 33.361672 -117.568995 130 5029ft 110kts
13-Feb-18 22:29 33.340594 -117.542483 127 5038ft 109kts
13-Feb-18 22:30 33.320799 -117.514788 128 5048ft 109kts
13-Feb-18 22:31 33.298941 -117.489331 135 5049ft 110kts
13-Feb-18 22:32 33.275957 -117.465160 130 5062ft 109kts
13-Feb-18 22:33 33.255842 -117.438122 120 5065ft 108kts
13-Feb-18 22:34 33.245359 -117.405325 94 5069ft 106kts
13-Feb-18 22:35 33.240903 -117.369640 98 5010ft 109kts
13-Feb-18 22:36 33.236100 -117.334404 96 4979ft 109kts
13-Feb-18 22:37 33.232254 -117.298527 95 4956ft 110kts
13-Feb-18 22:38 33.227958 -117.262243 93 4953ft 108kts
13-Feb-18 22:39 33.225590 -117.226259 92 4951ft 110kts
13-Feb-18 22:40 33.222320 -117.189804 92 4973ft 107kts
13-Feb-18 22:41 33.218648 -117.153324 96 4557ft 111kts
13-Feb-18 22:42 33.212891 -117.117020 98 4025ft 107kts
13-Feb-18 22:43 33.209385 -117.085556 94 3971ft 89kts
13-Feb-18 22:44 33.205908 -117.056014 94 3991ft 89kts
13-Feb-18 22:45 33.196492 -117.031186 187 3916ft 99kts
13-Feb-18 22:46 33.175348 -117.055717 226 3492ft 107kts
13-Feb-18 22:47 33.163049 -117.081197 253 3385ft 88kts
13-Feb-18 22:48 33.156811 -117.110075 258 3374ft 96kts
13-Feb-18 22:49 33.152067 -117.142521 266 2854ft 96kts
13-Feb-18 22:50 33.147536 -117.173316 259 2180ft 76kts
13-Feb-18 22:51 33.142443 -117.195892 251 1714ft 66kts
13-Feb-18 22:52 33.138045 -117.219645 261 1329ft 84kts
13-Feb-18 22:53 33.134107 -117.247361 259 828ft 83kts
13-Feb-18 22:54 33.129107 -117.274281 260 351ft 76kts
13-Feb-18 22:55 33.127096 -117.282660 161 335ft 0kts
13-Feb-18 22:56 33.127539 -117.279046 107 335ft 13kts
13-Feb-18 22:57 33.127136 -117.279016 258 335ft 0kts
13-Feb-18 22:58 33.127136 -117.279016 258 335ft 0kts

Navigation Log

Ident Type
1. KSNA Airport
2. OCN Navaid
3. KCRQ Airport